createdAt,value
2022-10-03T00:01:18.908Z,98529.36
2022-10-03T00:02:40.256Z,98530.81
2022-10-03T00:05:56.854Z,98529.97
2022-10-03T00:07:02.642Z,98532.51
2022-10-03T00:08:20.770Z,98530.61
2022-10-03T00:09:26.444Z,98516.30
2022-10-03T00:10:41.571Z,98528.08
2022-10-03T00:12:10.280Z,98525.77
2022-10-03T00:13:22.024Z,98525.76
2022-10-03T00:14:33.842Z,98520.28
2022-10-03T00:15:56.605Z,98514.39
2022-10-03T00:17:11.796Z,98514.39
2022-10-03T00:18:26.986Z,98529.57
2022-10-03T00:20:06.791Z,98525.14
2022-10-03T00:21:24.399Z,98525.14
2022-10-03T00:24:11.306Z,98522.92
2022-10-03T00:25:39.780Z,98497.45
2022-10-03T00:26:54.865Z,98514.19
2022-10-03T00:28:16.236Z,98513.36
2022-10-03T00:29:51.423Z,98511.03
2022-10-03T00:32:35.958Z,98511.34
2022-10-03T00:33:41.901Z,98501.95
2022-10-03T00:34:50.454Z,98501.95
2022-10-03T00:36:16.045Z,98507.64
2022-10-03T00:37:24.815Z,98499.98
2022-10-03T00:38:30.518Z,98492.29
2022-10-03T00:40:00.125Z,98508.30
2022-10-03T00:41:26.698Z,98510.52
2022-10-03T00:43:00.131Z,98505.77
2022-10-03T00:44:18.142Z,98497.45
2022-10-03T00:45:36.163Z,98494.72
2022-10-03T00:46:54.077Z,98500.29
2022-10-03T00:48:19.896Z,98508.40
2022-10-03T00:50:01.688Z,98510.72
2022-10-03T00:51:19.497Z,98507.22
2022-10-03T00:52:57.259Z,98507.43
2022-10-03T00:54:21.395Z,98499.84
2022-10-03T00:55:30.199Z,98506.39
2022-10-03T00:57:41.628Z,98509.95
2022-10-03T00:59:15.156Z,98500.29
2022-10-03T01:00:29.429Z,98500.50
2022-10-03T01:01:35.318Z,98499.42
2022-10-03T01:02:52.793Z,98495.33
2022-10-03T01:04:04.585Z,98499.41
2022-10-03T01:05:40.524Z,98500.06
2022-10-03T01:06:49.054Z,98495.44
2022-10-03T01:08:23.362Z,98487.84
2022-10-03T01:09:47.323Z,98500.50
2022-10-03T01:10:59.343Z,98500.70
2022-10-03T01:12:20.133Z,98501.75
2022-10-03T01:14:54.400Z,98502.14
2022-10-03T01:16:02.885Z,98503.66
2022-10-03T01:17:37.445Z,98498.58
2022-10-03T01:18:49.286Z,98499.97
2022-10-03T01:20:19.203Z,98500.08
2022-10-03T01:21:25.161Z,98499.98
2022-10-03T01:22:58.128Z,98494.81
2022-10-03T01:24:26.475Z,98496.27
2022-10-03T01:25:51.956Z,98497.96
2022-10-03T01:27:09.870Z,98498.48
2022-10-03T01:28:18.481Z,98494.47
2022-10-03T01:29:24.306Z,98496.25
2022-10-03T01:30:30.336Z,98494.91
2022-10-03T01:32:03.469Z,98496.04
2022-10-03T01:33:15.343Z,98509.73
2022-10-03T01:34:21.158Z,98502.35
2022-10-03T01:35:45.125Z,98500.47
2022-10-03T01:38:31.138Z,98492.14
2022-10-03T01:39:52.018Z,98500.47
2022-10-03T01:41:18.104Z,98508.38
2022-10-03T01:42:39.114Z,98498.05
2022-10-03T01:43:53.975Z,98505.74
2022-10-03T01:45:08.857Z,98496.05
2022-10-03T01:46:36.028Z,98501.75
2022-10-03T01:47:50.799Z,98491.52
2022-10-03T01:49:17.152Z,98508.50
2022-10-03T01:50:31.834Z,98490.48
2022-10-03T01:52:03.150Z,98505.24
2022-10-03T01:53:30.219Z,98501.11
2022-10-03T01:54:47.912Z,98500.08
2022-10-03T01:56:12.200Z,98502.71
2022-10-03T01:59:07.431Z,98497.33
2022-10-03T02:00:19.090Z,98501.75
2022-10-03T02:01:22.919Z,98501.95
2022-10-03T02:02:31.682Z,98502.61
2022-10-03T02:03:51.930Z,98501.02
2022-10-03T02:05:18.043Z,98496.27
2022-10-03T02:06:36.054Z,98493.12
2022-10-03T02:07:41.846Z,98500.28
2022-10-03T02:08:53.394Z,98495.95
2022-10-03T02:10:13.793Z,98495.02
2022-10-03T02:11:31.360Z,98501.33
2022-10-03T02:12:43.103Z,98503.03
2022-10-03T02:13:51.844Z,98503.34
2022-10-03T02:15:14.422Z,98498.80
2022-10-03T02:16:46.191Z,98499.02
2022-10-03T02:17:54.772Z,98495.13
2022-10-03T02:19:06.598Z,98495.02
2022-10-03T02:20:12.547Z,98495.66
2022-10-03T02:21:18.534Z,98498.48
2022-10-03T02:22:39.639Z,98499.53
2022-10-03T02:23:44.705Z,98490.80
2022-10-03T02:24:56.240Z,98501.02
2022-10-03T02:26:00.058Z,98483.52
2022-10-03T02:27:38.187Z,98496.90
2022-10-03T02:28:58.682Z,98489.97
2022-10-03T02:30:21.659Z,98483.21
2022-10-03T02:31:47.361Z,98496.69
2022-10-03T02:33:04.949Z,98500.70
2022-10-03T02:34:16.915Z,98490.48
2022-10-03T02:35:42.662Z,98486.16
2022-10-03T02:37:05.607Z,98490.27
2022-10-03T02:38:28.190Z,98496.90
2022-10-03T02:39:49.279Z,98499.22
2022-10-03T02:41:20.573Z,98492.91
2022-10-03T02:42:32.273Z,98489.00
2022-10-03T02:43:38.055Z,98486.92
2022-10-03T02:45:09.064Z,98483.21
2022-10-03T02:46:38.131Z,98495.44
2022-10-03T02:48:08.432Z,98490.78
2022-10-03T02:49:24.314Z,98493.12
2022-10-03T02:50:56.436Z,98487.84
2022-10-03T02:52:14.420Z,98496.69
2022-10-03T02:53:39.968Z,98490.06
2022-10-03T02:55:19.780Z,98495.12
2022-10-03T02:56:45.577Z,98491.83
2022-10-03T02:58:14.511Z,98483.31
2022-10-03T02:59:36.689Z,98488.58
2022-10-03T03:00:48.936Z,98491.95
2022-10-03T03:02:11.927Z,98483.11
2022-10-03T03:03:20.451Z,98487.95
2022-10-03T03:04:44.338Z,98487.53
2022-10-03T03:05:59.116Z,98484.48
2022-10-03T03:07:34.909Z,98493.31
2022-10-03T03:08:46.419Z,98487.22
2022-10-03T03:10:08.503Z,98485.22
2022-10-03T03:11:31.566Z,98491.94
2022-10-03T03:12:49.528Z,98485.12
2022-10-03T03:14:15.305Z,98486.16
2022-10-03T03:15:53.328Z,98481.55
2022-10-03T03:18:31.479Z,98482.88
2022-10-03T03:19:42.987Z,98486.81
2022-10-03T03:20:55.873Z,98476.48
2022-10-03T03:22:07.551Z,98480.46
2022-10-03T03:23:34.309Z,98474.59
2022-10-03T03:24:42.731Z,98482.38
2022-10-03T03:26:03.602Z,98490.38
2022-10-03T03:27:24.117Z,98495.44
2022-10-03T03:28:44.794Z,98494.25
2022-10-03T03:29:50.642Z,98492.91
2022-10-03T03:31:17.996Z,98495.84
2022-10-03T03:32:26.589Z,98470.05
2022-10-03T03:33:48.522Z,98490.16
2022-10-03T03:35:03.540Z,98495.33
2022-10-03T03:36:09.313Z,98488.38
2022-10-03T03:37:15.036Z,98478.15
2022-10-03T03:38:53.040Z,98482.69
2022-10-03T03:40:20.320Z,98465.61
2022-10-03T03:43:12.549Z,98473.50
2022-10-03T03:44:38.210Z,98468.03
2022-10-03T03:46:00.806Z,98465.51
2022-10-03T03:47:29.719Z,98469.30
2022-10-03T03:48:52.146Z,98462.98
2022-10-03T03:50:31.911Z,98472.89
2022-10-03T03:51:57.580Z,98464.04
2022-10-03T03:53:20.334Z,98469.09
2022-10-03T03:54:41.527Z,98476.59
2022-10-03T03:56:11.669Z,98480.69
2022-10-03T03:57:40.484Z,98479.02
2022-10-03T03:58:55.339Z,98469.52
2022-10-03T04:00:16.297Z,98479.85
2022-10-03T04:01:42.524Z,98486.27
2022-10-03T04:03:00.584Z,98481.96
2022-10-03T04:04:17.952Z,98479.64
2022-10-03T04:05:40.587Z,98489.10
2022-10-03T04:07:03.279Z,98481.41
2022-10-03T04:08:17.765Z,98491.22
2022-10-03T04:09:40.332Z,98479.02
2022-10-03T04:10:54.910Z,98481.09
2022-10-03T04:12:06.319Z,98480.06
2022-10-03T04:13:29.072Z,98483.22
2022-10-03T04:14:53.233Z,98478.91
2022-10-03T04:16:05.247Z,98472.68
2022-10-03T04:17:13.956Z,98473.86
2022-10-03T04:18:25.337Z,98476.16
2022-10-03T04:19:33.855Z,98476.28
2022-10-03T04:21:00.700Z,98479.23
2022-10-03T04:22:06.853Z,98477.53
2022-10-03T04:23:24.406Z,98482.89
2022-10-03T04:24:44.993Z,98485.33
2022-10-03T04:26:02.284Z,98486.81
2022-10-03T04:27:23.401Z,98482.89
2022-10-03T04:29:03.161Z,98486.92
2022-10-03T04:30:18.155Z,98485.95
2022-10-03T04:31:40.660Z,98487.55
2022-10-03T04:33:05.223Z,98481.76
2022-10-03T04:34:25.997Z,98487.44
2022-10-03T04:35:47.067Z,98486.37
2022-10-03T04:37:18.619Z,98485.74
2022-10-03T04:38:39.664Z,98481.76
2022-10-03T04:41:02.470Z,98479.44
2022-10-03T04:42:14.229Z,98481.55
2022-10-03T04:43:50.746Z,98487.02
2022-10-03T04:45:13.296Z,98490.17
2022-10-03T04:46:34.178Z,98481.76
2022-10-03T04:47:57.950Z,98483.63
2022-10-03T04:49:12.544Z,98485.64
2022-10-03T04:50:36.857Z,98484.50
2022-10-03T04:51:55.826Z,98480.69
2022-10-03T04:53:16.804Z,98484.05
2022-10-03T04:54:34.399Z,98490.39
2022-10-03T04:55:42.828Z,98498.49
2022-10-03T04:56:57.579Z,98485.95
2022-10-03T04:58:18.626Z,98488.06
2022-10-03T04:59:27.621Z,98487.02
2022-10-03T05:00:49.997Z,98485.54
2022-10-03T05:02:01.736Z,98483.21
2022-10-03T05:03:22.630Z,98491.42
2022-10-03T05:04:34.363Z,98481.97
2022-10-03T05:05:43.130Z,98483.31
2022-10-03T05:06:49.073Z,98490.08
2022-10-03T05:08:03.787Z,98491.42
2022-10-03T05:09:18.781Z,98483.95
2022-10-03T05:10:46.125Z,98483.63
2022-10-03T05:11:57.996Z,98479.02
2022-10-03T05:13:03.714Z,98485.02
2022-10-03T05:14:12.406Z,98483.73
2022-10-03T05:15:30.024Z,98484.81
2022-10-03T05:16:38.773Z,98485.74
2022-10-03T05:18:05.334Z,98489.31
2022-10-03T05:19:26.359Z,98489.31
2022-10-03T05:20:47.447Z,98467.84
2022-10-03T05:21:58.979Z,98489.31
2022-10-03T05:23:20.192Z,98495.13
2022-10-03T05:24:38.265Z,98498.08
2022-10-03T05:26:02.743Z,98493.75
2022-10-03T05:27:09.862Z,98500.92
2022-10-03T05:28:18.635Z,98505.25
2022-10-03T05:29:33.586Z,98503.45
2022-10-03T05:30:48.511Z,98506.19
2022-10-03T05:33:08.739Z,98504.69
2022-10-03T05:34:29.536Z,98508.09
2022-10-03T05:35:47.657Z,98503.03
2022-10-03T05:37:13.222Z,98497.34
2022-10-03T05:38:25.013Z,98498.90
2022-10-03T05:40:01.265Z,98500.08
2022-10-03T05:41:09.658Z,98508.50
2022-10-03T05:42:38.493Z,98505.88
2022-10-03T05:44:05.711Z,98504.70
2022-10-03T05:45:26.607Z,98500.08
2022-10-03T05:46:32.435Z,98499.64
2022-10-03T05:47:53.537Z,98480.17
2022-10-03T05:49:11.270Z,98505.56
2022-10-03T05:50:23.645Z,98509.44
2022-10-03T05:51:45.778Z,98495.44
2022-10-03T05:54:11.355Z,98495.02
2022-10-03T05:55:38.537Z,98501.13
2022-10-03T05:57:03.777Z,98494.92
2022-10-03T05:58:29.344Z,98501.85
2022-10-03T05:59:46.620Z,98501.64
2022-10-03T06:01:11.008Z,98506.29
2022-10-03T06:02:36.564Z,98509.13
2022-10-03T06:04:11.485Z,98502.61
2022-10-03T06:05:17.434Z,98502.06
2022-10-03T06:06:25.929Z,98505.77
2022-10-03T06:07:48.546Z,98513.56
2022-10-03T06:09:11.377Z,98509.64
2022-10-03T06:10:23.165Z,98512.38
2022-10-03T06:11:54.907Z,98510.81
2022-10-03T06:13:12.998Z,98515.01
2022-10-03T06:14:37.011Z,98517.01
2022-10-03T06:16:00.741Z,98509.94
2022-10-03T06:17:23.513Z,98506.36
2022-10-03T06:18:58.475Z,98517.73
2022-10-03T06:20:24.336Z,98525.75
2022-10-03T06:21:53.137Z,98519.01
2022-10-03T06:23:31.385Z,98519.02
2022-10-03T06:25:00.808Z,98519.01
2022-10-03T06:26:40.557Z,98518.92
2022-10-03T06:28:12.410Z,98514.37
2022-10-03T06:29:25.099Z,98517.95
2022-10-03T06:30:43.090Z,98521.53
2022-10-03T06:32:04.201Z,98525.73
2022-10-03T06:33:33.101Z,98522.87
2022-10-03T06:34:38.837Z,98529.12
2022-10-03T06:36:06.052Z,98524.36
2022-10-03T06:37:41.057Z,98519.60
2022-10-03T06:39:03.769Z,98531.00
2022-10-03T06:40:21.582Z,98528.66
2022-10-03T06:41:52.426Z,98529.63
2022-10-03T06:43:00.895Z,98527.72
2022-10-03T06:44:12.734Z,98535.63
2022-10-03T06:45:48.848Z,98540.25
2022-10-03T06:47:26.828Z,98535.60
2022-10-03T06:48:52.643Z,98546.77
2022-10-03T06:50:13.742Z,98542.46
2022-10-03T06:51:44.665Z,98545.53
2022-10-03T06:53:02.958Z,98543.62
2022-10-03T06:54:17.257Z,98542.14
2022-10-03T06:55:42.656Z,98543.30
2022-10-03T06:58:44.355Z,98543.38
2022-10-03T07:01:15.884Z,98545.90
2022-10-03T07:02:33.926Z,98546.33
2022-10-03T07:05:30.789Z,98549.55
2022-10-03T07:06:39.527Z,98545.90
2022-10-03T07:07:54.240Z,98551.60
2022-10-03T07:09:16.814Z,98547.81
2022-10-03T07:10:45.314Z,98546.98
2022-10-03T07:12:14.992Z,98549.29
2022-10-03T07:13:40.679Z,98551.50
2022-10-03T07:15:03.265Z,98556.88
2022-10-03T07:16:26.925Z,98560.99
2022-10-03T07:17:28.893Z,98541.70
2022-10-03T07:19:08.252Z,98563.84
2022-10-03T07:20:36.960Z,98556.88
2022-10-03T07:21:52.261Z,98559.08
2022-10-03T07:23:28.061Z,98559.84
2022-10-03T07:24:50.735Z,98557.73
2022-10-03T07:26:08.743Z,98565.52
2022-10-03T07:27:20.508Z,98556.55
2022-10-03T07:28:47.523Z,98548.42
2022-10-03T07:30:21.595Z,98555.83
2022-10-03T07:31:56.373Z,98555.40
2022-10-03T07:33:23.444Z,98559.38
2022-10-03T07:34:46.257Z,98557.45
2022-10-03T07:36:08.704Z,98558.72
2022-10-03T07:37:26.764Z,98556.08
2022-10-03T07:38:50.705Z,98556.84
2022-10-03T07:40:11.910Z,98560.73
2022-10-03T07:41:17.838Z,98557.23
2022-10-03T07:42:23.619Z,98549.64
2022-10-03T07:43:32.516Z,98553.37
2022-10-03T07:45:05.058Z,98559.94
2022-10-03T07:46:32.595Z,98555.14
2022-10-03T07:47:56.325Z,98556.14
2022-10-03T07:49:37.363Z,98556.36
2022-10-03T07:51:04.348Z,98553.00
2022-10-03T07:52:10.144Z,98559.44
2022-10-03T07:53:38.638Z,98543.72
2022-10-03T07:54:55.987Z,98546.03
2022-10-03T07:56:09.653Z,98541.37
2022-10-03T07:57:15.225Z,98541.79
2022-10-03T07:58:29.898Z,98537.02
2022-10-03T08:00:00.129Z,98544.70
2022-10-03T08:01:25.620Z,98544.76
2022-10-03T08:02:48.368Z,98541.89
2022-10-03T08:04:00.251Z,98537.51
2022-10-03T08:05:25.435Z,98536.80
2022-10-03T08:06:46.428Z,98543.33
2022-10-03T08:08:09.012Z,98538.05
2022-10-03T08:09:33.251Z,98540.54
2022-10-03T08:10:56.975Z,98540.12
2022-10-03T08:12:27.347Z,98540.12
2022-10-03T08:13:57.072Z,98541.36
2022-10-03T08:16:47.506Z,98526.27
2022-10-03T08:17:59.215Z,98526.98
2022-10-03T08:19:10.666Z,98532.02
2022-10-03T08:20:30.374Z,98532.02
2022-10-03T08:21:54.685Z,98534.42
2022-10-03T08:23:12.651Z,98528.91
2022-10-03T08:24:24.474Z,98536.84
2022-10-03T08:25:30.230Z,98536.38
2022-10-03T08:26:39.001Z,98539.97
2022-10-03T08:27:51.013Z,98539.97
2022-10-03T08:29:05.638Z,98532.52
2022-10-03T08:30:39.186Z,98531.80
2022-10-03T08:31:48.104Z,98534.69
2022-10-03T08:33:00.173Z,98534.69
2022-10-03T08:34:21.303Z,98508.49
2022-10-03T08:35:46.717Z,98536.97
2022-10-03T08:37:09.420Z,98532.41
2022-10-03T08:38:28.248Z,98533.70
2022-10-03T08:39:34.190Z,98531.41
2022-10-03T08:41:02.265Z,98529.84
2022-10-03T08:42:27.578Z,98524.55
2022-10-03T08:43:54.166Z,98530.67
2022-10-03T08:45:33.980Z,98530.67
2022-10-03T08:46:46.104Z,98524.05
2022-10-03T08:49:25.629Z,98534.61
2022-10-03T08:50:34.593Z,98539.31
2022-10-03T08:51:57.271Z,98540.17
2022-10-03T08:53:03.163Z,98543.28
2022-10-03T08:54:25.370Z,98542.33
2022-10-03T08:55:40.379Z,98537.77
2022-10-03T08:56:58.698Z,98538.48
2022-10-03T08:58:19.073Z,98544.97
2022-10-03T08:59:41.364Z,98546.79
2022-10-03T09:01:03.643Z,98549.90
2022-10-03T09:02:28.856Z,98549.06
2022-10-03T09:03:57.603Z,98549.31
2022-10-03T09:05:20.401Z,98549.31
2022-10-03T09:07:15.931Z,98549.09
2022-10-03T09:08:02.806Z,98549.09
2022-10-03T09:09:08.576Z,98546.77
2022-10-03T09:10:20.680Z,98551.34
2022-10-03T09:11:41.205Z,98548.33
2022-10-03T09:13:06.651Z,98549.50
2022-10-03T09:14:27.734Z,98545.87
2022-10-03T09:16:02.549Z,98545.86
2022-10-03T09:17:37.637Z,98541.84
2022-10-03T09:19:03.506Z,98541.66
2022-10-03T09:20:18.662Z,98531.58
2022-10-03T09:21:41.317Z,98544.63
2022-10-03T09:23:08.711Z,98537.56
2022-10-03T09:24:32.092Z,98542.42
2022-10-03T09:25:47.067Z,98552.83
2022-10-03T09:27:26.081Z,98548.81
2022-10-03T09:28:48.680Z,98543.38
2022-10-03T09:30:17.757Z,98547.28
2022-10-03T09:31:42.281Z,98542.81
2022-10-03T09:33:16.870Z,98539.31
2022-10-03T09:34:39.597Z,98556.05
2022-10-03T09:36:10.979Z,98552.17
2022-10-03T09:37:32.054Z,98550.81
2022-10-03T09:38:57.284Z,98550.56
2022-10-03T09:40:19.713Z,98555.60
2022-10-03T09:41:43.694Z,98553.48
2022-10-03T09:43:04.359Z,98546.83
2022-10-03T09:44:33.021Z,98537.36
2022-10-03T09:45:54.081Z,98534.94
2022-10-03T09:47:29.114Z,98544.98
2022-10-03T09:48:44.182Z,98543.73
2022-10-03T09:50:23.957Z,98540.77
2022-10-03T09:51:35.709Z,98535.63
2022-10-03T09:52:41.682Z,98550.48
2022-10-03T09:54:05.188Z,98549.57
2022-10-03T09:55:41.234Z,98551.55
2022-10-03T09:57:03.734Z,98556.59
2022-10-03T09:58:29.264Z,98538.13
2022-10-03T09:59:52.017Z,98538.69
2022-10-03T10:01:19.377Z,98554.67
2022-10-03T10:02:37.703Z,98548.64
2022-10-03T10:04:06.474Z,98534.09
2022-10-03T10:05:29.892Z,98535.34
2022-10-03T10:06:44.131Z,98532.98
2022-10-03T10:08:19.134Z,98544.87
2022-10-03T10:09:39.673Z,98556.44
2022-10-03T10:11:02.362Z,98553.52
2022-10-03T10:12:27.792Z,98553.52
2022-10-03T10:14:09.689Z,98542.75
2022-10-03T10:15:04.739Z,98551.84
2022-10-03T10:16:27.341Z,98482.69
2022-10-03T10:17:42.174Z,98558.66
2022-10-03T10:19:12.087Z,98547.78
2022-10-03T10:20:41.861Z,98557.40
2022-10-03T10:21:53.374Z,98557.40
2022-10-03T10:23:31.469Z,98560.99
2022-10-03T10:25:12.568Z,98557.61
2022-10-03T10:26:33.091Z,98549.41
2022-10-03T10:27:56.377Z,98549.41
2022-10-03T10:29:11.388Z,98555.09
2022-10-03T10:32:21.168Z,98539.67
2022-10-03T10:33:43.685Z,98534.11
2022-10-03T10:34:58.498Z,98560.03
2022-10-03T10:36:25.438Z,98550.65
2022-10-03T10:37:47.993Z,98549.28
2022-10-03T10:39:13.838Z,98555.45
2022-10-03T10:40:53.480Z,98519.31
2022-10-03T10:42:31.640Z,98552.17
2022-10-03T10:43:53.897Z,98556.78
2022-10-03T10:45:11.384Z,98554.23
2022-10-03T10:46:28.998Z,98563.48
2022-10-03T10:47:51.533Z,98563.62
2022-10-03T10:49:18.616Z,98554.38
2022-10-03T10:50:26.971Z,98554.53
2022-10-03T10:51:49.464Z,98561.80
2022-10-03T10:53:10.672Z,98561.80
2022-10-03T10:54:25.670Z,98561.80
2022-10-03T10:56:05.511Z,98552.58
2022-10-03T10:57:37.490Z,98559.30
2022-10-03T10:59:09.379Z,98564.94
2022-10-03T11:00:30.531Z,98568.87
2022-10-03T11:02:10.952Z,98560.07
2022-10-03T11:03:45.616Z,98561.34
2022-10-03T11:05:12.828Z,98546.52
2022-10-03T11:06:24.740Z,98560.52
2022-10-03T11:08:02.985Z,98561.08
2022-10-03T11:09:25.138Z,98557.42
2022-10-03T11:10:34.034Z,98564.12
2022-10-03T11:12:14.731Z,98568.16
2022-10-03T11:13:39.936Z,98561.05
2022-10-03T11:15:19.263Z,98566.22
2022-10-03T11:16:34.294Z,98564.45
2022-10-03T11:18:05.530Z,98557.34
2022-10-03T11:19:31.481Z,98557.75
2022-10-03T11:21:12.606Z,98566.69
2022-10-03T11:22:50.566Z,98561.65
2022-10-03T11:24:11.757Z,98572.27
2022-10-03T11:25:33.994Z,98564.98
2022-10-03T11:27:13.698Z,98566.95
2022-10-03T11:28:48.561Z,98573.09
2022-10-03T11:30:11.105Z,98569.48
2022-10-03T11:31:29.080Z,98567.23
2022-10-03T11:32:44.296Z,98569.75
2022-10-03T11:33:52.971Z,98564.72
2022-10-03T11:36:46.603Z,98525.59
2022-10-03T11:38:09.155Z,98525.59
2022-10-03T11:39:27.320Z,98570.07
2022-10-03T11:40:47.911Z,98564.17
2022-10-03T11:42:02.971Z,98563.76
2022-10-03T11:43:43.859Z,98570.34
2022-10-03T11:44:52.114Z,98548.82
2022-10-03T11:45:57.405Z,98559.72
2022-10-03T11:47:24.454Z,98566.42
2022-10-03T11:48:42.294Z,98571.73
2022-10-03T11:50:05.654Z,98572.73
2022-10-03T11:51:14.328Z,98582.63
2022-10-03T11:52:29.202Z,98565.86
2022-10-03T11:53:40.655Z,98573.70
2022-10-03T11:54:46.573Z,98570.34
2022-10-03T11:55:55.181Z,98563.77
2022-10-03T11:57:07.065Z,98569.20
2022-10-03T11:58:25.109Z,98569.20
2022-10-03T11:59:55.603Z,98578.45
2022-10-03T12:01:01.602Z,98570.07
2022-10-03T12:02:16.832Z,98580.80
2022-10-03T12:03:31.986Z,98571.17
2022-10-03T12:04:52.621Z,98573.42
2022-10-03T12:06:01.118Z,98579.98
2022-10-03T12:07:13.628Z,98571.05
2022-10-03T12:08:31.424Z,98580.70
2022-10-03T12:10:09.535Z,98580.12
2022-10-03T12:11:43.287Z,98576.91
2022-10-03T12:12:49.282Z,98574.97
2022-10-03T12:14:18.257Z,98581.95
2022-10-03T12:15:41.787Z,98575.25
2022-10-03T12:16:57.120Z,98577.77
2022-10-03T12:19:14.120Z,98563.34
2022-10-03T12:20:23.007Z,98576.63
2022-10-03T12:21:51.966Z,98578.45
2022-10-03T12:23:17.256Z,98578.19
2022-10-03T12:24:28.640Z,98579.02
2022-10-03T12:25:34.282Z,98576.77
2022-10-03T12:27:04.252Z,98576.63
2022-10-03T12:28:37.012Z,98584.60
2022-10-03T12:29:42.683Z,98583.50
2022-10-03T12:30:48.610Z,98577.63
2022-10-03T12:32:10.757Z,98589.91
2022-10-03T12:33:22.544Z,98579.84
2022-10-03T12:34:40.551Z,98582.64
2022-10-03T12:37:20.985Z,98581.80
2022-10-03T12:38:46.517Z,98573.70
2022-10-03T12:39:51.169Z,98578.45
2022-10-03T12:41:20.207Z,98590.60
2022-10-03T12:42:47.603Z,98589.08
2022-10-03T12:43:53.347Z,98589.08
2022-10-03T12:45:05.193Z,98599.12
2022-10-03T12:46:17.385Z,98594.08
2022-10-03T12:47:55.456Z,98582.76
2022-10-03T12:49:00.825Z,98581.66
2022-10-03T12:50:36.475Z,98576.91
2022-10-03T12:51:51.502Z,98591.19
2022-10-03T12:53:18.073Z,98573.14
2022-10-03T12:54:44.954Z,98588.67
2022-10-03T12:55:56.545Z,98580.97
2022-10-03T12:57:21.872Z,98586.83
2022-10-03T12:58:49.009Z,98587.11
2022-10-03T12:59:57.693Z,98591.08
2022-10-03T13:01:03.646Z,98604.42
2022-10-03T13:02:40.105Z,98614.30
2022-10-03T13:04:01.300Z,98621.03
2022-10-03T13:05:25.797Z,98610.05
2022-10-03T13:08:00.088Z,98620.43
2022-10-03T13:09:05.959Z,98610.69
2022-10-03T13:10:31.586Z,98626.91
2022-10-03T13:11:40.826Z,98608.61
2022-10-03T13:12:52.610Z,98604.53
2022-10-03T13:13:56.265Z,98603.38
2022-10-03T13:15:20.825Z,98602.23
2022-10-03T13:16:32.389Z,98603.57
2022-10-03T13:17:47.203Z,98601.23
2022-10-03T13:19:06.618Z,98600.41
2022-10-03T13:20:19.347Z,98587.66
2022-10-03T13:21:45.396Z,98594.15
2022-10-03T13:22:55.514Z,98594.15
2022-10-03T13:24:01.241Z,98609.13
2022-10-03T13:25:23.747Z,98606.60
2022-10-03T13:26:38.781Z,98606.60
2022-10-03T13:27:44.479Z,98600.59
2022-10-03T13:29:13.689Z,98601.63
2022-10-03T13:30:31.524Z,98599.45
2022-10-03T13:31:36.448Z,98602.55
2022-10-03T13:32:42.442Z,98589.42
2022-10-03T13:33:48.226Z,98598.77
2022-10-03T13:35:27.502Z,98602.80
2022-10-03T13:36:51.157Z,98592.00
2022-10-03T13:38:21.238Z,98598.70
2022-10-03T13:39:29.994Z,98595.27
2022-10-03T13:40:36.009Z,98596.78
2022-10-03T13:41:42.136Z,98603.44
2022-10-03T13:42:46.886Z,98580.01
2022-10-03T13:43:58.857Z,98591.16
2022-10-03T13:45:04.134Z,98601.42
2022-10-03T13:46:13.160Z,98615.80
2022-10-03T13:47:33.536Z,98616.05
2022-10-03T13:48:36.275Z,98596.54
2022-10-03T13:49:50.620Z,98616.88
2022-10-03T13:50:59.186Z,98628.08
2022-10-03T13:52:07.733Z,98613.95
2022-10-03T13:53:39.622Z,98629.84
2022-10-03T13:55:02.196Z,98625.05
2022-10-03T13:56:10.860Z,98613.95
2022-10-03T13:57:22.014Z,98613.47
2022-10-03T14:00:11.543Z,98609.66
2022-10-03T14:01:23.524Z,98612.69
2022-10-03T14:02:50.643Z,98618.31
2022-10-03T14:03:56.646Z,98615.54
2022-10-03T14:05:11.469Z,98608.45
2022-10-03T14:06:26.612Z,98610.24
2022-10-03T14:07:38.673Z,98616.98
2022-10-03T14:09:02.705Z,98601.41
2022-10-03T14:10:08.515Z,98615.91
2022-10-03T14:11:38.877Z,98600.84
2022-10-03T14:13:03.290Z,98600.84
2022-10-03T14:15:48.133Z,98596.44
2022-10-03T14:17:01.066Z,98600.08
2022-10-03T14:18:22.071Z,98600.08
2022-10-03T14:19:53.610Z,98594.78
2022-10-03T14:21:14.361Z,98591.52
2022-10-03T14:22:28.940Z,98589.98
2022-10-03T14:23:46.103Z,98589.98
2022-10-03T14:25:01.116Z,98587.53
2022-10-03T14:26:23.774Z,98581.03
2022-10-03T14:27:41.955Z,98589.42
2022-10-03T14:28:56.981Z,98591.63
2022-10-03T14:30:14.661Z,98596.99
2022-10-03T14:31:35.262Z,98594.91
2022-10-03T14:33:05.250Z,98596.52
2022-10-03T14:34:20.348Z,98591.44
2022-10-03T14:35:29.183Z,98591.27
2022-10-03T14:36:50.410Z,98563.75
2022-10-03T14:38:05.031Z,98585.40
2022-10-03T14:39:16.223Z,98599.39
2022-10-03T14:40:31.364Z,98584.06
2022-10-03T14:42:05.750Z,98591.87
2022-10-03T14:43:17.490Z,98570.88
2022-10-03T14:44:25.602Z,98588.78
2022-10-03T14:46:50.152Z,98584.43
2022-10-03T14:47:55.881Z,98590.89
2022-10-03T14:49:03.947Z,98589.80
2022-10-03T14:50:09.340Z,98586.89
2022-10-03T14:51:44.110Z,98593.16
2022-10-03T14:52:50.063Z,98597.50
2022-10-03T14:53:58.843Z,98597.24
2022-10-03T14:55:16.964Z,98584.43
2022-10-03T14:56:20.215Z,98581.96
2022-10-03T14:57:58.762Z,98576.66
2022-10-03T14:58:48.508Z,98587.27
2022-10-03T14:59:54.232Z,98585.31
2022-10-03T15:01:06.242Z,98587.45
2022-10-03T15:02:20.484Z,98577.56
2022-10-03T15:03:25.943Z,98577.56
2022-10-03T15:04:31.820Z,98577.56
2022-10-03T15:05:35.513Z,98581.18
2022-10-03T15:06:50.304Z,98583.96
2022-10-03T15:07:52.981Z,98579.48
2022-10-03T15:08:57.550Z,98588.38
2022-10-03T15:10:02.285Z,98587.13
2022-10-03T15:11:06.153Z,98586.30
2022-10-03T15:12:21.088Z,98596.20
2022-10-03T15:13:26.213Z,98591.48
2022-10-03T15:14:31.980Z,98586.88
2022-10-03T15:15:40.651Z,98596.20
2022-10-03T15:18:01.559Z,98588.05
2022-10-03T15:19:16.047Z,98590.61
2022-10-03T15:20:21.819Z,98597.42
2022-10-03T15:21:26.787Z,98588.77
2022-10-03T15:22:32.521Z,98594.78
2022-10-03T15:23:41.176Z,98593.09
2022-10-03T15:24:44.426Z,98596.47
2022-10-03T15:25:49.460Z,98597.87
2022-10-03T15:27:04.600Z,98586.30
2022-10-03T15:28:16.186Z,98572.13
2022-10-03T15:29:20.527Z,98589.47
2022-10-03T15:31:45.783Z,98597.61
2022-10-03T15:32:50.182Z,98601.30
2022-10-03T15:33:54.357Z,98601.55
2022-10-03T15:35:00.102Z,98593.95
2022-10-03T15:36:20.889Z,98592.25
2022-10-03T15:37:26.154Z,98588.91
2022-10-03T15:38:35.054Z,98595.48
2022-10-03T15:39:39.221Z,98599.69
2022-10-03T15:42:04.353Z,98584.53
2022-10-03T15:43:08.104Z,98593.14
2022-10-03T15:44:16.620Z,98587.13
2022-10-03T15:45:25.447Z,98587.00
2022-10-03T15:46:33.369Z,98587.27
2022-10-03T15:47:39.069Z,98586.74
2022-10-03T15:48:47.198Z,98586.48
2022-10-03T15:50:05.194Z,98584.80
2022-10-03T15:51:11.006Z,98588.56
2022-10-03T15:52:19.760Z,98582.87
2022-10-03T15:54:36.692Z,98586.27
2022-10-03T15:55:45.406Z,98584.40
2022-10-03T15:56:51.278Z,98585.52
2022-10-03T15:59:24.634Z,98577.61
2022-10-03T16:00:32.153Z,98590.95
2022-10-03T16:01:39.275Z,98579.48
2022-10-03T16:02:46.055Z,98586.22
2022-10-03T16:03:57.794Z,98587.05
2022-10-03T16:05:03.342Z,98576.84
2022-10-03T16:06:12.529Z,98584.80
2022-10-03T16:07:21.281Z,98577.56
2022-10-03T16:08:27.667Z,98580.22
2022-10-03T16:09:34.647Z,98580.92